Time;durP1;ratioP1;P1;durP2;ratioP2;P2;SDS_P1;SDS_P2;PMS_P1;PMS_P2;Temp;Humidity;BMP_temperature;BMP_pressure;BME280_temperature;BME280_humidity;BME280_pressure;Samples;Min_cycle;Max_cycle;Signal;HPM_P1;HPM_P2
2022/01/13 00:01:30;;;;;;;42.37;19.63;;;2.20;1.00;;;;;;5051870;28;20500;-58
2022/01/13 00:03:57;;;;;;;47.47;20.17;;;2.30;1.00;;;;;;5051785;28;20448;-61
2022/01/13 00:06:23;;;;;;;42.53;19.47;;;2.30;1.00;;;;;;5051688;28;20907;-60
2022/01/13 00:08:51;;;;;;;43.00;19.37;;;2.30;1.00;;;;;;5051719;28;20939;-59
2022/01/13 00:11:18;;;;;;;50.67;20.90;;;2.30;1.00;;;;;;5051564;28;20472;-58
2022/01/13 00:13:49;;;;;;;43.50;21.20;;;2.30;1.00;;;;;;5051823;28;20513;-58
2022/01/13 00:16:38;;;;;;;43.30;20.67;;;2.30;1.00;;;;;;5051371;28;20925;-58
2022/01/13 00:19:19;;;;;;;42.67;21.50;;;2.30;1.00;;;;;;5051634;28;20456;-58
2022/01/13 00:21:51;;;;;;;41.43;20.93;;;2.30;1.00;;;;;;5051792;28;20469;-59
2022/01/13 00:24:19;;;;;;;47.67;21.07;;;2.30;1.00;;;;;;5052017;28;20444;-58
2022/01/13 00:26:47;;;;;;;47.27;20.33;;;2.30;1.00;;;;;;5051368;28;20535;-59
2022/01/13 00:29:20;;;;;;;48.77;21.03;;;2.30;1.00;;;;;;5051650;28;20994;-59
2022/01/13 00:31:47;;;;;;;45.53;19.73;;;2.40;1.00;;;;;;5051698;28;20506;-62
2022/01/13 00:34:14;;;;;;;47.10;20.93;;;2.30;1.00;;;;;;5051308;28;20452;-61
2022/01/13 00:36:41;;;;;;;46.40;21.53;;;2.40;1.00;;;;;;5051480;28;20998;-59
2022/01/13 00:39:11;;;;;;;49.90;21.97;;;2.40;1.00;;;;;;5050987;28;20482;-62
2022/01/13 00:41:39;;;;;;;51.63;22.80;;;2.30;1.00;;;;;;5051242;28;20440;-59
2022/01/13 00:44:08;;;;;;;51.97;22.37;;;2.40;1.00;;;;;;5051181;28;20444;-59
2022/01/13 00:46:44;;;;;;;47.77;20.43;;;2.30;1.00;;;;;;5051262;28;20452;-59
2022/01/13 00:49:12;;;;;;;46.00;20.83;;;2.20;1.00;;;;;;5050910;28;20457;-59
2022/01/13 00:51:40;;;;;;;50.17;22.17;;;2.30;1.00;;;;;;5051246;28;20480;-60
2022/01/13 00:54:08;;;;;;;50.33;22.00;;;2.30;1.00;;;;;;5051134;28;20459;-60
2022/01/13 00:56:36;;;;;;;51.97;22.37;;;2.30;1.00;;;;;;5051165;28;20448;-60
2022/01/13 00:59:07;;;;;;;52.07;24.43;;;2.20;1.00;;;;;;5051197;28;20452;-59
2022/01/13 01:01:34;;;;;;;54.00;22.73;;;2.10;1.00;;;;;;5051078;28;20830;-60
2022/01/13 01:04:01;;;;;;;53.60;23.57;;;2.00;1.00;;;;;;5051082;28;20962;-60
2022/01/13 01:06:28;;;;;;;53.23;23.17;;;2.00;1.00;;;;;;5050783;28;20483;-60
2022/01/13 01:08:55;;;;;;;53.43;22.17;;;2.00;1.00;;;;;;5051668;28;20444;-58
2022/01/13 01:11:24;;;;;;;51.47;21.70;;;2.10;1.00;;;;;;5051455;28;20510;-60
2022/01/13 01:13:51;;;;;;;55.77;22.47;;;2.00;1.00;;;;;;5051374;28;20460;-55
2022/01/13 01:16:20;;;;;;;51.53;21.73;;;2.00;1.00;;;;;;5050951;28;20448;-57
2022/01/13 01:18:54;;;;;;;54.60;21.50;;;2.10;1.00;;;;;;5050974;28;20447;-59
2022/01/13 01:21:47;;;;;;;52.23;23.40;;;2.10;1.00;;;;;;5050943;28;20455;-58
2022/01/13 01:26:59;;;;;;;56.37;22.87;;;2.00;1.00;;;;;;5033531;28;20436;-57
2022/01/13 01:29:29;;;;;;;52.57;22.97;;;2.00;1.00;;;;;;5051158;28;20472;-59
2022/01/13 01:32:00;;;;;;;54.70;23.23;;;2.00;1.00;;;;;;5051585;28;20491;-60
2022/01/13 01:34:43;;;;;;;61.27;23.47;;;2.10;1.00;;;;;;5050800;28;21025;-59
2022/01/13 01:37:14;;;;;;;57.40;22.40;;;2.00;1.00;;;;;;5050909;28;20462;-58
2022/01/13 01:39:41;;;;;;;55.77;22.47;;;1.90;1.00;;;;;;5051913;28;20480;-59
2022/01/13 01:42:08;;;;;;;66.07;25.67;;;1.90;1.00;;;;;;5054624;28;20497;-60
2022/01/13 01:44:39;;;;;;;64.07;23.87;;;1.90;1.00;;;;;;5054518;28;20497;-58
2022/01/13 01:47:10;;;;;;;60.60;23.90;;;1.80;1.00;;;;;;5054211;28;21018;-56
2022/01/13 01:49:39;;;;;;;54.60;20.80;;;1.90;1.00;;;;;;5054359;28;20483;-59
2022/01/13 01:52:08;;;;;;;52.87;22.97;;;1.80;1.00;;;;;;5054054;28;20486;-60
2022/01/13 01:54:35;;;;;;;62.33;24.17;;;1.80;1.00;;;;;;5054227;28;20509;-60
2022/01/13 01:57:02;;;;;;;58.17;23.43;;;1.70;1.00;;;;;;5054449;28;20455;-59
2022/01/13 01:59:31;;;;;;;57.97;22.07;;;1.80;1.00;;;;;;5054511;28;20475;-59
2022/01/13 02:01:58;;;;;;;61.93;23.20;;;1.80;1.00;;;;;;5054271;28;20450;-60
2022/01/13 02:04:28;;;;;;;65.00;22.90;;;1.90;1.00;;;;;;5054944;28;20451;-59
2022/01/13 02:06:59;;;;;;;56.40;23.97;;;1.80;1.00;;;;;;5054205;28;20478;-60
2022/01/13 02:09:26;;;;;;;67.23;23.53;;;1.90;1.00;;;;;;5054674;28;20475;-60
2022/01/13 02:11:57;;;;;;;68.77;23.37;;;1.80;1.00;;;;;;5054597;28;20479;-60
2022/01/13 02:14:34;;;;;;;58.07;22.00;;;1.80;1.00;;;;;;5053918;28;20463;-60
2022/01/13 02:17:05;;;;;;;59.03;23.37;;;1.70;1.00;;;;;;5053879;28;20452;-60
2022/01/13 02:19:37;;;;;;;61.00;23.03;;;1.70;1.00;;;;;;5053600;28;20471;-60
2022/01/13 02:22:06;;;;;;;67.60;23.73;;;1.80;1.00;;;;;;5054203;28;20458;-60
2022/01/13 02:24:34;;;;;;;61.57;23.53;;;1.80;1.00;;;;;;5054232;28;20447;-59
2022/01/13 02:27:01;;;;;;;63.80;24.17;;;1.90;1.00;;;;;;5053674;28;20819;-60
2022/01/13 02:29:28;;;;;;;60.47;23.27;;;1.90;1.00;;;;;;5053488;28;20989;-60
2022/01/13 02:31:55;;;;;;;60.57;21.70;;;1.90;1.00;;;;;;5053692;28;20505;-59
2022/01/13 02:34:22;;;;;;;67.23;24.23;;;1.90;1.00;;;;;;5053822;28;20444;-60
2022/01/13 02:36:51;;;;;;;56.97;24.40;;;1.90;1.00;;;;;;5053718;28;20447;-60
2022/01/13 02:39:20;;;;;;;61.83;25.60;;;1.90;1.00;;;;;;5053799;28;20538;-60
2022/01/13 02:41:48;;;;;;;64.73;24.90;;;1.80;1.00;;;;;;5053240;28;20460;-59
2022/01/13 02:44:17;;;;;;;60.87;24.07;;;1.80;1.00;;;;;;5053529;28;20517;-60
2022/01/13 02:47:07;;;;;;;52.50;18.50;;;1.90;1.00;;;;;;5052972;28;20448;-60
2022/01/13 02:49:34;;;;;;;66.27;24.63;;;1.90;1.00;;;;;;5053705;28;20537;-61
2022/01/13 02:52:02;;;;;;;68.03;25.27;;;1.90;1.00;;;;;;5052824;28;20444;-60
2022/01/13 02:54:30;;;;;;;68.23;23.87;;;1.80;1.00;;;;;;5053232;28;20452;-61
2022/01/13 02:56:57;;;;;;;56.73;23.33;;;1.80;1.00;;;;;;5052835;28;20451;-60
2022/01/13 02:59:23;;;;;;;65.70;25.57;;;1.80;1.00;;;;;;5053240;28;20498;-60
2022/01/13 03:01:50;;;;;;;69.67;27.33;;;1.80;1.00;;;;;;5053505;28;20497;-58
2022/01/13 03:04:17;;;;;;;77.63;26.80;;;1.80;1.00;;;;;;5053098;28;20502;-57
2022/01/13 03:06:43;;;;;;;72.80;26.43;;;1.80;1.00;;;;;;5053008;28;20451;-59
2022/01/13 03:09:13;;;;;;;65.70;25.67;;;1.90;1.00;;;;;;5052863;28;20441;-60
2022/01/13 03:11:43;;;;;;;70.77;25.43;;;1.90;1.00;;;;;;5052795;28;21041;-60
2022/01/13 03:14:12;;;;;;;72.83;26.33;;;1.90;1.00;;;;;;5052832;28;20527;-60
2022/01/13 03:16:39;;;;;;;78.73;28.27;;;1.90;1.00;;;;;;5053110;28;20506;-59
2022/01/13 03:19:05;;;;;;;68.77;26.07;;;1.90;1.00;;;;;;5053119;28;20467;-60
2022/01/13 03:21:32;;;;;;;75.83;24.77;;;1.90;1.00;;;;;;5052699;28;20447;-59
2022/01/13 03:23:59;;;;;;;69.23;26.67;;;1.90;1.00;;;;;;5052491;28;20931;-60
2022/01/13 03:26:26;;;;;;;70.27;27.17;;;1.90;1.00;;;;;;5052402;28;20460;-60
2022/01/13 03:29:04;;;;;;;72.57;28.87;;;1.90;1.00;;;;;;5052811;28;20455;-60
2022/01/13 03:31:31;;;;;;;74.57;26.00;;;1.90;1.00;;;;;;5052767;28;20522;-60
2022/01/13 03:33:58;;;;;;;77.80;27.57;;;1.90;1.00;;;;;;5052540;28;20495;-60
2022/01/13 03:36:25;;;;;;;76.63;30.83;;;1.80;1.00;;;;;;5052362;28;20947;-60
2022/01/13 03:38:53;;;;;;;83.37;29.57;;;1.80;1.00;;;;;;5052398;28;20483;-57
2022/01/13 03:41:21;;;;;;;75.30;29.33;;;1.80;1.00;;;;;;5052637;28;20483;-60
2022/01/13 03:43:50;;;;;;;69.97;27.47;;;1.80;1.00;;;;;;5052352;28;20535;-60
2022/01/13 03:46:18;;;;;;;74.27;27.33;;;1.90;1.00;;;;;;5052238;28;20456;-59
2022/01/13 03:48:45;;;;;;;76.70;29.50;;;1.90;1.00;;;;;;5051969;28;20957;-59
2022/01/13 03:51:12;;;;;;;78.00;28.03;;;1.80;1.00;;;;;;5052010;28;20479;-56
2022/01/13 03:54:50;;;;;;;82.77;28.40;;;1.80;1.00;;;;;;5052074;28;20494;-60
2022/01/13 03:57:55;;;;;;;70.37;27.63;;;1.90;1.00;;;;;;5051828;28;20514;-59
2022/01/13 04:01:17;;;;;;;77.53;27.73;;;1.80;1.00;;;;;;5051843;28;21011;-58
2022/01/13 04:03:45;;;;;;;77.60;28.10;;;1.90;1.00;;;;;;5051534;28;20444;-60
2022/01/13 04:06:39;;;;;;;78.17;28.10;;;1.90;1.00;;;;;;5051744;28;21018;-59
2022/01/13 04:09:09;;;;;;;83.27;29.10;;;2.00;1.00;;;;;;5051934;28;20451;-58
2022/01/13 04:11:36;;;;;;;75.40;28.07;;;1.90;1.00;;;;;;5051733;28;20497;-60
2022/01/13 04:14:05;;;;;;;74.83;27.50;;;1.90;1.00;;;;;;5051724;28;20487;-59
2022/01/13 04:16:36;;;;;;;73.63;27.80;;;1.90;1.00;;;;;;5051524;28;20448;-60
2022/01/13 04:19:07;;;;;;;74.83;28.60;;;1.80;1.00;;;;;;5052449;28;20922;-58
2022/01/13 04:21:37;;;;;;;74.50;26.10;;;1.90;1.00;;;;;;5051883;28;20844;-59
2022/01/13 04:24:05;;;;;;;78.50;28.33;;;1.90;1.00;;;;;;5051734;28;20522;-60
2022/01/13 04:26:34;;;;;;;77.50;28.63;;;1.90;1.00;;;;;;5051251;28;20884;-59
2022/01/13 04:29:16;;;;;;;77.07;28.40;;;1.90;1.00;;;;;;5052011;28;20466;-60
2022/01/13 04:31:45;;;;;;;74.50;27.90;;;1.80;1.00;;;;;;5051852;28;20448;-59
2022/01/13 04:34:14;;;;;;;69.10;26.23;;;1.80;1.00;;;;;;5051719;28;20484;-60
2022/01/13 04:36:41;;;;;;;77.10;25.10;;;1.90;1.00;;;;;;5051820;28;20449;-60
2022/01/13 04:39:09;;;;;;;68.43;25.07;;;1.90;1.00;;;;;;5051207;28;20830;-60
2022/01/13 04:41:38;;;;;;;71.33;26.97;;;1.80;1.00;;;;;;5051693;28;20961;-60
2022/01/13 04:44:07;;;;;;;76.77;27.47;;;1.80;1.00;;;;;;5051868;28;20452;-60
2022/01/13 04:46:35;;;;;;;73.73;26.57;;;1.80;1.00;;;;;;5052591;28;20455;-59
2022/01/13 04:49:02;;;;;;;74.63;28.80;;;1.70;1.00;;;;;;5051818;28;20457;-60
2022/01/13 04:51:30;;;;;;;75.43;27.60;;;1.80;1.00;;;;;;5052003;28;20585;-59
2022/01/13 04:53:57;;;;;;;76.87;26.77;;;1.80;1.00;;;;;;5051319;28;21099;-60
2022/01/13 04:56:30;;;;;;;75.77;28.93;;;1.80;1.00;;;;;;5051836;28;20455;-61
2022/01/13 04:58:57;;;;;;;67.27;24.87;;;1.80;1.00;;;;;;5051876;28;20491;-60
2022/01/13 05:01:24;;;;;;;73.07;27.40;;;1.80;1.00;;;;;;5052622;28;20509;-60
2022/01/13 05:03:51;;;;;;;79.07;28.40;;;1.80;1.00;;;;;;5051578;28;20447;-59
2022/01/13 05:06:19;;;;;;;72.27;27.10;;;1.80;1.00;;;;;;5050818;28;20452;-58
2022/01/13 05:08:47;;;;;;;75.70;29.57;;;1.80;1.00;;;;;;5051325;28;20482;-59
2022/01/13 05:11:14;;;;;;;69.33;26.87;;;1.80;1.00;;;;;;5050952;28;20470;-58
2022/01/13 05:13:41;;;;;;;80.33;29.30;;;1.70;1.00;;;;;;5052155;28;20490;-59
2022/01/13 05:16:16;;;;;;;70.70;25.63;;;1.70;1.00;;;;;;5055102;28;20819;-59
2022/01/13 05:18:55;;;;;;;83.20;28.40;;;1.70;1.00;;;;;;5054885;28;20529;-61
2022/01/13 05:21:24;;;;;;;73.70;27.47;;;1.70;1.00;;;;;;5055400;28;20508;-60
2022/01/13 05:23:53;;;;;;;72.07;26.70;;;1.80;1.00;;;;;;5054937;28;20450;-60
2022/01/13 05:26:21;;;;;;;73.53;26.77;;;1.80;1.00;;;;;;5054788;28;20547;-61
2022/01/13 05:28:48;;;;;;;76.80;29.33;;;1.80;1.00;;;;;;5054678;28;20508;-61
2022/01/13 05:31:14;;;;;;;64.57;25.67;;;1.80;1.00;;;;;;5049491;28;20894;-62
2022/01/13 05:33:41;;;;;;;77.50;27.13;;;1.80;1.00;;;;;;5032691;28;20487;-62
2022/01/13 05:36:08;;;;;;;77.63;28.63;;;1.80;1.00;;;;;;5034435;28;20482;-62
2022/01/13 05:38:34;;;;;;;82.37;29.93;;;1.80;1.00;;;;;;5034765;28;20513;-62
2022/01/13 05:41:03;;;;;;;66.67;25.30;;;1.70;1.00;;;;;;5034487;28;20467;-61
2022/01/13 05:43:29;;;;;;;75.80;25.60;;;1.80;1.00;;;;;;5034611;28;20448;-61
2022/01/13 05:45:56;;;;;;;72.03;25.50;;;1.80;1.00;;;;;;5034143;28;20454;-62
2022/01/13 05:48:23;;;;;;;65.20;27.80;;;1.90;1.00;;;;;;5034774;28;20453;-62
2022/01/13 05:50:50;;;;;;;70.60;27.13;;;1.90;1.00;;;;;;5034873;28;20804;-62
2022/01/13 05:53:16;;;;;;;74.33;27.77;;;1.80;1.00;;;;;;5029351;28;20905;-62
2022/01/13 05:55:43;;;;;;;75.77;28.07;;;1.70;1.00;;;;;;5034240;28;20444;-61
2022/01/13 05:58:11;;;;;;;82.57;27.27;;;1.80;1.00;;;;;;5033714;28;20452;-62
2022/01/13 06:00:38;;;;;;;75.03;27.50;;;1.70;1.00;;;;;;5034009;28;20480;-61
2022/01/13 06:03:05;;;;;;;76.73;27.67;;;1.80;1.00;;;;;;5033670;28;20510;-62
2022/01/13 06:05:32;;;;;;;73.60;27.80;;;1.80;1.00;;;;;;5034073;28;20539;-62
2022/01/13 06:07:59;;;;;;;75.67;28.13;;;1.80;1.00;;;;;;5033586;28;20829;-61
2022/01/13 06:10:26;;;;;;;74.60;29.57;;;1.90;1.00;;;;;;5033785;28;20531;-62
2022/01/13 06:12:53;;;;;;;70.40;27.90;;;1.90;1.00;;;;;;5033276;28;20497;-60
2022/01/13 06:15:23;;;;;;;80.80;28.80;;;2.00;1.00;;;;;;5033390;28;20791;-62
2022/01/13 06:17:51;;;;;;;72.57;27.70;;;1.90;1.00;;;;;;5033606;28;20456;-61
2022/01/13 06:20:19;;;;;;;82.33;28.50;;;2.00;1.00;;;;;;5033428;28;20512;-62
2022/01/13 06:22:47;;;;;;;80.13;28.43;;;1.80;1.00;;;;;;5033255;28;20459;-62
2022/01/13 06:25:15;;;;;;;69.83;27.87;;;1.90;1.00;;;;;;5032502;28;20453;-61
2022/01/13 06:27:42;;;;;;;74.83;27.70;;;1.70;1.00;;;;;;5033377;28;20480;-62
2022/01/13 06:30:13;;;;;;;75.17;28.00;;;1.70;1.00;;;;;;5036393;28;20910;-62
2022/01/13 06:32:41;;;;;;;77.20;28.17;;;1.80;1.00;;;;;;5033250;28;20845;-62
2022/01/13 06:35:08;;;;;;;79.37;28.73;;;1.80;1.00;;;;;;5033379;28;20488;-62
2022/01/13 06:37:35;;;;;;;77.30;28.30;;;1.80;1.00;;;;;;5032990;28;21018;-62
2022/01/13 06:40:03;;;;;;;70.13;27.03;;;1.70;1.00;;;;;;5032990;28;20537;-62
2022/01/13 06:42:29;;;;;;;69.13;28.77;;;1.70;1.00;;;;;;5033025;28;20525;-63
2022/01/13 06:44:56;;;;;;;72.77;28.67;;;1.70;1.00;;;;;;5032828;28;20445;-62
2022/01/13 06:47:23;;;;;;;74.67;27.67;;;1.70;1.00;;;;;;5033078;28;20503;-61
2022/01/13 06:49:51;;;;;;;80.23;29.07;;;1.60;1.00;;;;;;5033220;28;20469;-61
2022/01/13 06:52:18;;;;;;;77.63;28.30;;;1.60;1.00;;;;;;5033040;28;20476;-62
2022/01/13 06:54:44;;;;;;;79.10;28.73;;;1.60;1.00;;;;;;5032631;28;20490;-62
2022/01/13 06:57:11;;;;;;;72.13;27.73;;;1.60;1.00;;;;;;5032779;28;20456;-62
2022/01/13 06:59:38;;;;;;;74.87;26.83;;;1.60;1.00;;;;;;5032853;28;20969;-62
2022/01/13 07:02:05;;;;;;;71.27;26.17;;;1.60;1.00;;;;;;5032769;28;20461;-64
2022/01/13 07:04:33;;;;;;;72.40;26.77;;;1.70;1.00;;;;;;5033283;28;20452;-64
2022/01/13 07:07:01;;;;;;;69.77;27.67;;;1.70;1.00;;;;;;5032796;28;20480;-61
2022/01/13 07:09:28;;;;;;;75.27;26.37;;;1.60;1.00;;;;;;5033145;28;20495;-64
2022/01/13 07:11:55;;;;;;;74.57;28.60;;;1.60;1.00;;;;;;5033727;28;20834;-64
2022/01/13 07:14:21;;;;;;;74.40;26.13;;;1.60;1.00;;;;;;5033932;28;20503;-64
2022/01/13 07:16:49;;;;;;;78.53;28.33;;;1.60;1.00;;;;;;5033501;28;20517;-62
2022/01/13 07:19:16;;;;;;;78.00;28.57;;;1.50;1.00;;;;;;5032615;28;20476;-62
2022/01/13 07:21:44;;;;;;;83.37;30.13;;;1.60;1.00;;;;;;5032571;28;20958;-61
2022/01/13 07:24:12;;;;;;;75.43;27.73;;;1.60;1.00;;;;;;5032694;28;20854;-60
2022/01/13 07:26:39;;;;;;;78.83;28.10;;;1.60;1.00;;;;;;5033112;28;20821;-60
2022/01/13 07:29:07;;;;;;;89.00;30.17;;;1.60;1.00;;;;;;5032444;28;20457;-61
2022/01/13 07:31:34;;;;;;;85.40;29.63;;;1.70;1.00;;;;;;5032436;28;20448;-61
2022/01/13 07:34:01;;;;;;;80.43;28.00;;;1.60;1.00;;;;;;5032033;28;20488;-59
2022/01/13 07:36:28;;;;;;;74.57;28.43;;;1.60;1.00;;;;;;5032213;28;20468;-61
2022/01/13 07:38:55;;;;;;;76.17;26.60;;;1.70;1.00;;;;;;5032351;28;20506;-61
2022/01/13 07:41:23;;;;;;;82.30;28.13;;;1.70;1.00;;;;;;5032180;28;20460;-61
2022/01/13 07:43:54;;;;;;;74.67;27.07;;;1.80;1.00;;;;;;5032232;28;20449;-60
2022/01/13 07:46:21;;;;;;;76.30;28.47;;;1.90;1.00;;;;;;5032181;28;20521;-62
2022/01/13 07:48:48;;;;;;;72.73;28.20;;;1.80;1.00;;;;;;5031687;28;20970;-61
2022/01/13 07:51:15;;;;;;;69.80;28.70;;;1.80;1.00;;;;;;5031933;28;20480;-62
2022/01/13 07:53:42;;;;;;;71.57;26.40;;;1.70;1.00;;;;;;5031048;28;20553;-62
2022/01/13 07:56:08;;;;;;;79.63;27.30;;;1.70;1.00;;;;;;5031875;28;20456;-62
2022/01/13 07:58:37;;;;;;;80.87;28.67;;;1.70;1.00;;;;;;5032925;28;20453;-63
2022/01/13 08:01:05;;;;;;;76.87;27.67;;;1.60;1.00;;;;;;5031830;28;20479;-63
2022/01/13 08:03:31;;;;;;;82.40;30.90;;;1.70;1.00;;;;;;5031488;28;20511;-61
2022/01/13 08:06:17;;;;;;;78.23;28.23;;;1.60;1.00;;;;;;5031283;28;20562;-65
2022/01/13 08:08:44;;;;;;;79.87;27.63;;;1.60;1.00;;;;;;5031080;28;21015;-60
2022/01/13 08:11:11;;;;;;;71.97;26.00;;;1.60;1.00;;;;;;5031059;28;20479;-55
2022/01/13 08:13:39;;;;;;;73.87;27.20;;;1.60;1.00;;;;;;5031645;28;20819;-62
2022/01/13 08:16:09;;;;;;;76.00;28.17;;;1.50;1.00;;;;;;5033647;28;20463;-62
2022/01/13 08:21:21;;;;;;;74.33;26.60;;;1.60;1.00;;;;;;5031481;28;21009;-61
2022/01/13 08:23:49;;;;;;;77.30;25.40;;;1.50;1.00;;;;;;5031129;28;20838;-62
2022/01/13 08:26:16;;;;;;;85.93;29.43;;;1.50;1.00;;;;;;5033404;28;20448;-62
2022/01/13 08:28:44;;;;;;;74.10;27.03;;;1.50;1.00;;;;;;5033615;28;20457;-60
2022/01/13 08:31:11;;;;;;;76.80;28.37;;;1.60;1.00;;;;;;5032896;28;20482;-60
2022/01/13 08:33:39;;;;;;;76.67;27.47;;;1.50;1.00;;;;;;5031759;28;20450;-60
2022/01/13 08:36:06;;;;;;;93.23;29.23;;;1.50;1.00;;;;;;5031652;28;20445;-62
2022/01/13 08:38:34;;;;;;;74.33;26.87;;;1.60;1.00;;;;;;5032186;28;20460;-61
2022/01/13 08:41:01;;;;;;;75.77;27.70;;;1.60;1.00;;;;;;5031195;28;20482;-60
2022/01/13 08:43:29;;;;;;;80.70;26.73;;;1.60;1.00;;;;;;5030856;28;20483;-60
2022/01/13 08:45:57;;;;;;;85.93;28.53;;;1.60;1.00;;;;;;5030432;28;20543;-61
2022/01/13 08:48:25;;;;;;;80.97;28.73;;;1.60;1.00;;;;;;5030540;28;20453;-62
2022/01/13 08:50:52;;;;;;;89.10;30.93;;;1.70;1.00;;;;;;5030855;28;20483;-60
2022/01/13 08:53:19;;;;;;;84.80;29.27;;;1.70;1.00;;;;;;5029832;28;20482;-60
2022/01/13 08:55:46;;;;;;;82.43;28.50;;;1.70;1.00;;;;;;5030787;28;20487;-62
2022/01/13 08:58:13;;;;;;;80.20;28.60;;;1.70;1.00;;;;;;5030459;28;20937;-63
2022/01/13 09:00:40;;;;;;;86.90;29.27;;;1.80;1.00;;;;;;5031007;28;20811;-61
2022/01/13 09:03:08;;;;;;;84.37;29.87;;;1.90;1.00;;;;;;5030252;28;20456;-60
2022/01/13 09:05:35;;;;;;;73.40;26.43;;;2.00;1.00;;;;;;5030356;28;20915;-60
2022/01/13 09:08:05;;;;;;;75.17;28.60;;;2.10;1.00;;;;;;5030072;28;20528;-60
2022/01/13 09:10:32;;;;;;;74.37;26.00;;;2.10;1.00;;;;;;5030419;28;20985;-62
2022/01/13 09:12:59;;;;;;;82.83;30.37;;;2.10;1.00;;;;;;5030367;28;20464;-64
2022/01/13 09:15:35;;;;;;;83.93;28.57;;;2.00;1.00;;;;;;5030433;28;20489;-63
2022/01/13 09:18:08;;;;;;;70.83;27.50;;;2.10;1.00;;;;;;5030609;28;20452;-63
2022/01/13 09:20:37;;;;;;;76.53;28.67;;;2.10;1.00;;;;;;5030578;28;21025;-65
2022/01/13 09:23:04;;;;;;;72.67;29.47;;;2.10;1.00;;;;;;5030934;28;20448;-63
2022/01/13 09:25:31;;;;;;;74.67;28.87;;;2.20;1.00;;;;;;5031146;28;20449;-63
2022/01/13 09:27:58;;;;;;;74.27;27.70;;;2.20;1.00;;;;;;5030309;28;20456;-62
2022/01/13 09:30:25;;;;;;;81.03;31.30;;;2.30;1.00;;;;;;5030842;28;20469;-62
2022/01/13 09:32:52;;;;;;;71.33;29.70;;;2.40;1.00;;;;;;5029811;28;20508;-62
2022/01/13 09:35:19;;;;;;;73.63;29.90;;;2.40;1.00;;;;;;5031026;28;20558;-60
2022/01/13 09:37:47;;;;;;;67.83;28.13;;;2.50;1.00;;;;;;5030351;28;20928;-61
2022/01/13 09:40:15;;;;;;;73.30;28.30;;;2.50;1.00;;;;;;5030793;28;20979;-60
2022/01/13 09:42:44;;;;;;;72.83;28.60;;;2.60;1.00;;;;;;5030320;28;20456;-62
2022/01/13 09:45:12;;;;;;;70.27;28.77;;;2.60;1.00;;;;;;5030142;28;20449;-60
2022/01/13 09:47:40;;;;;;;73.10;30.30;;;2.60;1.00;;;;;;5030152;28;20479;-61
2022/01/13 09:50:10;;;;;;;68.63;29.10;;;2.60;1.00;;;;;;5030368;28;20473;-60
2022/01/13 09:52:37;;;;;;;72.37;30.13;;;2.70;1.00;;;;;;5030033;28;20959;-61
2022/01/13 09:55:07;;;;;;;69.73;29.17;;;2.80;1.00;;;;;;5030452;28;20512;-62
2022/01/13 09:57:34;;;;;;;74.37;30.40;;;2.90;1.00;;;;;;5030132;28;20460;-62
2022/01/13 10:00:01;;;;;;;78.27;28.23;;;3.00;1.00;;;;;;5030291;28;20473;-62
2022/01/13 10:02:29;;;;;;;63.03;28.30;;;3.00;1.00;;;;;;5033664;28;20452;-62
2022/01/13 10:04:56;;;;;;;65.43;28.00;;;2.90;1.00;;;;;;5034115;28;20548;-62
2022/01/13 10:07:34;;;;;;;66.53;28.57;;;3.00;1.00;;;;;;5033640;28;20540;-63
2022/01/13 10:10:04;;;;;;;56.90;26.43;;;3.00;1.00;;;;;;5033755;28;20476;-63
2022/01/13 10:12:37;;;;;;;63.60;29.33;;;2.90;1.00;;;;;;5033586;28;20947;-62
2022/01/13 10:17:48;;;;;;;60.63;26.57;;;2.90;1.00;;;;;;4989868;28;20592;-62
2022/01/13 10:20:17;;;;;;;56.27;26.60;;;3.00;1.00;;;;;;5033448;28;20469;-63
2022/01/13 10:22:48;;;;;;;69.47;28.53;;;2.90;1.00;;;;;;5033530;28;20479;-63
2022/01/13 10:26:00;;;;;;;65.77;28.57;;;3.00;1.00;;;;;;5033014;28;20990;-63
2022/01/13 10:28:29;;;;;;;64.83;30.33;;;3.10;1.00;;;;;;5033349;28;20457;-64
2022/01/13 10:30:55;;;;;;;62.77;28.37;;;3.20;1.00;;;;;;5032814;28;20871;-65
2022/01/13 10:33:35;;;;;;;72.40;27.83;;;3.30;1.00;;;;;;5033229;28;20809;-65
2022/01/13 10:36:10;;;;;;;63.30;25.23;;;3.30;1.00;;;;;;5032470;28;20485;-61
2022/01/13 10:38:54;;;;;;;63.27;27.63;;;3.30;1.00;;;;;;5033192;28;20449;-61
2022/01/13 10:41:31;;;;;;;63.40;27.87;;;3.40;1.00;;;;;;5032859;28;20456;-61
2022/01/13 10:44:17;;;;;;;67.80;27.03;;;3.60;1.00;;;;;;5032957;28;20461;-65
2022/01/13 10:46:56;;;;;;;61.83;28.00;;;3.70;1.00;;;;;;5033301;28;20476;-65
2022/01/13 10:49:32;;;;;;;60.17;25.90;;;3.80;1.00;;;;;;5033300;28;20230;-65
2022/01/13 10:52:18;;;;;;;60.07;28.30;;;4.00;1.00;;;;;;5033646;28;20482;-64
2022/01/13 10:54:45;;;;;;;53.43;23.50;;;3.90;1.00;;;;;;5012564;28;20434;-64
2022/01/13 10:57:19;;;;;;;56.70;25.40;;;4.10;1.00;;;;;;5013030;28;20202;-64
2022/01/13 10:59:47;;;;;;;53.40;23.83;;;4.00;99.90;;;;;;5012870;28;20472;-65
2022/01/13 11:02:14;;;;;;;52.93;25.70;;;3.90;99.90;;;;;;5012800;28;20671;-65
2022/01/13 11:04:41;;;;;;;57.43;24.57;;;3.90;99.90;;;;;;5012944;28;20207;-65
2022/01/13 11:07:17;;;;;;;56.60;23.50;;;3.90;99.90;;;;;;5012436;28;20944;-65
2022/01/13 11:09:52;;;;;;;54.70;24.10;;;4.00;99.90;;;;;;5012810;28;20641;-66
2022/01/13 11:12:27;;;;;;;51.60;23.10;;;4.10;1.00;;;;;;5011249;28;21018;-65
2022/01/13 11:15:03;;;;;;;49.73;22.53;;;4.30;99.90;;;;;;5012477;28;20804;-65
2022/01/13 11:17:30;;;;;;;48.67;23.17;;;4.40;99.90;;;;;;5012635;28;20536;-64
2022/01/13 11:19:57;;;;;;;51.03;22.23;;;4.60;99.90;;;;;;5012419;28;20231;-65
2022/01/13 11:22:25;;;;;;;45.90;21.13;;;4.70;99.90;;;;;;5012699;28;20669;-62
2022/01/13 11:24:51;;;;;;;46.93;21.73;;;4.70;99.90;;;;;;5013653;28;20242;-62
2022/01/13 11:27:20;;;;;;;47.97;21.37;;;4.40;99.90;;;;;;5012820;28;20210;-62
2022/01/13 11:29:47;;;;;;;46.80;21.73;;;4.30;99.90;;;;;;5012704;28;20227;-62
2022/01/13 11:32:17;;;;;;;46.53;22.40;;;4.30;99.90;;;;;;5012964;28;20725;-63
2022/01/13 11:34:44;;;;;;;45.87;20.63;;;4.40;99.90;;;;;;5012784;28;20215;-63
2022/01/13 11:37:11;;;;;;;48.23;23.00;;;4.50;99.90;;;;;;5013010;28;20215;-63
2022/01/13 11:39:41;;;;;;;40.23;20.23;;;4.60;99.90;;;;;;5012973;28;20640;-63
2022/01/13 11:42:10;;;;;;;47.33;21.67;;;4.60;99.90;;;;;;5012177;28;20693;-63
2022/01/13 11:44:37;;;;;;;46.17;22.20;;;4.60;99.90;;;;;;5016479;28;20208;-63
2022/01/13 11:47:18;;;;;;;46.90;19.50;;;4.60;99.90;;;;;;5018746;28;20545;-63
2022/01/13 11:49:56;;;;;;;46.67;21.33;;;4.60;99.90;;;;;;5013273;28;20609;-62
2022/01/13 11:52:40;;;;;;;46.20;20.43;;;4.60;99.90;;;;;;5012791;28;20204;-61
2022/01/13 11:55:21;;;;;;;44.53;22.10;;;4.70;99.90;;;;;;5015472;28;20238;-62
2022/01/13 11:57:48;;;;;;;44.03;20.77;;;4.60;99.90;;;;;;5018994;28;20728;-61
2022/01/13 12:00:28;;;;;;;46.53;19.63;;;4.60;99.90;;;;;;5018426;28;20359;-63
2022/01/13 12:02:57;;;;;;;42.27;21.20;;;4.70;99.90;;;;;;5012554;28;20211;-61
2022/01/13 12:05:26;;;;;;;40.23;19.23;;;4.80;99.90;;;;;;5012785;28;20246;-62
2022/01/13 12:07:55;;;;;;;40.30;19.60;;;4.90;99.90;;;;;;5012520;28;20589;-63
2022/01/13 12:10:51;;;;;;;43.50;20.00;;;5.00;99.90;;;;;;5012162;28;20230;-63
2022/01/13 12:13:44;;;;;;;44.17;18.50;;;5.20;99.90;;;;;;5011696;28;20219;-63
2022/01/13 12:16:12;;;;;;;39.23;17.50;;;5.30;99.90;;;;;;5009380;28;20287;-61
2022/01/13 12:19:02;;;;;;;40.10;17.67;;;5.30;99.90;;;;;;5013145;28;20205;-63
2022/01/13 12:21:32;;;;;;;39.70;18.30;;;5.30;99.90;;;;;;5029302;28;20211;-62
2022/01/13 12:24:00;;;;;;;38.87;16.83;;;5.30;99.90;;;;;;5050967;28;20298;-63
2022/01/13 12:26:51;;;;;;;35.70;17.30;;;5.40;99.90;;;;;;5052400;28;20208;-62
2022/01/13 12:29:21;;;;;;;44.47;18.77;;;5.50;47.10;;;;;;5032991;28;20235;-63
2022/01/13 12:31:56;;;;;;;31.67;15.17;;;5.60;75.30;;;;;;5052147;28;20306;-61
2022/01/13 12:34:45;;;;;;;43.40;17.37;;;5.80;1.00;;;;;;5051277;28;20209;-64
2022/01/13 12:38:09;;;;;;;41.77;17.47;;;5.90;1.00;;;;;;5051790;28;20237;-62
2022/01/13 12:41:04;;;;;;;41.80;17.77;;;6.00;1.00;;;;;;4989412;28;20258;-63
2022/01/13 12:49:14;;;;;;;39.80;17.73;;;6.10;1.00;;;;;;5024284;28;20212;-66
2022/01/13 12:51:42;;;;;;;40.10;18.57;;;6.10;1.00;;;;;;5051167;28;20266;-65
2022/01/13 12:54:08;;;;;;;39.93;17.57;;;6.20;1.00;;;;;;5051261;28;20244;-62
2022/01/13 12:56:35;;;;;;;41.47;17.67;;;6.40;1.00;;;;;;5050868;28;20225;-61
2022/01/13 12:59:06;;;;;;;35.80;16.93;;;6.40;99.90;;;;;;5051187;28;20209;-61
2022/01/13 13:01:35;;;;;;;33.50;16.83;;;6.60;99.90;;;;;;5051446;28;20223;-61
2022/01/13 13:04:03;;;;;;;32.87;17.20;;;6.60;99.90;;;;;;5051110;28;20255;-62
2022/01/13 13:06:32;;;;;;;33.67;15.43;;;6.60;99.90;;;;;;5051178;28;20239;-62
2022/01/13 13:09:05;;;;;;;32.20;15.63;;;6.70;99.90;;;;;;5050787;28;20256;-62
2022/01/13 13:11:33;;;;;;;31.03;15.27;;;6.70;99.90;;;;;;5051769;28;20209;-62
2022/01/13 13:14:00;;;;;;;35.60;15.40;;;6.70;99.90;;;;;;5051081;28;20252;-62
2022/01/13 13:16:28;;;;;;;32.00;15.17;;;6.70;99.90;;;;;;5051521;28;20719;-62